sensor_id;sensor_type;location;lat;lon;timestamp;temperature;humidity
31687;DHT22;18285;51.330;4.946;2022-08-19T00:05:51;25.10;54.70
31687;DHT22;18285;51.330;4.946;2022-08-19T00:30:03;25.10;54.90
31687;DHT22;18285;51.330;4.946;2022-08-19T00:54:15;25.10;54.70
31687;DHT22;18285;51.330;4.946;2022-08-19T01:18:27;25.20;54.40
31687;DHT22;18285;51.330;4.946;2022-08-19T01:42:38;25.20;54.50
31687;DHT22;18285;51.330;4.946;2022-08-19T02:06:49;25.10;54.60
31687;DHT22;18285;51.330;4.946;2022-08-19T02:31:00;25.20;54.40
31687;DHT22;18285;51.330;4.946;2022-08-19T02:55:11;25.20;54.60
31687;DHT22;18285;51.330;4.946;2022-08-19T03:19:21;25.20;54.70
31687;DHT22;18285;51.330;4.946;2022-08-19T03:43:36;25.20;54.40
31687;DHT22;18285;51.330;4.946;2022-08-19T04:07:47;25.20;54.20
31687;DHT22;18285;51.330;4.946;2022-08-19T04:31:59;25.20;54.10
31687;DHT22;18285;51.330;4.946;2022-08-19T04:56:15;25.20;53.80
31687;DHT22;18285;51.330;4.946;2022-08-19T05:20:26;25.20;53.40
31687;DHT22;18285;51.330;4.946;2022-08-19T05:44:56;25.20;53.20
31687;DHT22;18285;51.330;4.946;2022-08-19T06:09:07;25.10;53.00
31687;DHT22;18285;51.330;4.946;2022-08-19T06:33:18;24.80;54.00
31687;DHT22;18285;51.330;4.946;2022-08-19T06:57:29;24.80;54.30
31687;DHT22;18285;51.330;4.946;2022-08-19T07:21:43;25.00;54.30
31687;DHT22;18285;51.330;4.946;2022-08-19T07:45:55;25.10;54.30
31687;DHT22;18285;51.330;4.946;2022-08-19T08:10:08;25.10;54.50
31687;DHT22;18285;51.330;4.946;2022-08-19T08:34:20;25.10;54.50
31687;DHT22;18285;51.330;4.946;2022-08-19T08:58:45;25.10;54.70
31687;DHT22;18285;51.330;4.946;2022-08-19T09:22:58;25.10;54.70
31687;DHT22;18285;51.330;4.946;2022-08-19T09:47:10;25.10;54.70
31687;DHT22;18285;51.330;4.946;2022-08-19T10:11:22;25.20;54.30
31687;DHT22;18285;51.330;4.946;2022-08-19T10:35:33;25.20;54.50
31687;DHT22;18285;51.330;4.946;2022-08-19T10:59:43;25.20;54.90
31687;DHT22;18285;51.330;4.946;2022-08-19T11:23:56;25.10;56.40
31687;DHT22;18285;51.330;4.946;2022-08-19T11:48:07;25.20;56.60
31687;DHT22;18285;51.330;4.946;2022-08-19T12:12:18;25.20;57.20
31687;DHT22;18285;51.330;4.946;2022-08-19T12:36:29;25.20;55.50
31687;DHT22;18285;51.330;4.946;2022-08-19T13:00:39;25.20;54.40
31687;DHT22;18285;51.330;4.946;2022-08-19T13:24:51;25.20;54.50
31687;DHT22;18285;51.330;4.946;2022-08-19T13:49:01;25.20;54.20
31687;DHT22;18285;51.330;4.946;2022-08-19T14:13:18;25.30;53.90
31687;DHT22;18285;51.330;4.946;2022-08-19T14:37:29;25.30;54.10
31687;DHT22;18285;51.330;4.946;2022-08-19T15:01:40;25.30;54.00
31687;DHT22;18285;51.330;4.946;2022-08-19T15:25:50;25.20;53.60
31687;DHT22;18285;51.330;4.946;2022-08-19T15:50:10;25.20;53.50
31687;DHT22;18285;51.330;4.946;2022-08-19T16:14:21;25.30;53.50
31687;DHT22;18285;51.330;4.946;2022-08-19T16:38:33;25.20;55.50
31687;DHT22;18285;51.330;4.946;2022-08-19T17:02:44;25.20;55.20
31687;DHT22;18285;51.330;4.946;2022-08-19T17:26:54;25.40;57.60
31687;DHT22;18285;51.330;4.946;2022-08-19T17:51:35;25.20;57.00
31687;DHT22;18285;51.330;4.946;2022-08-19T18:15:48;25.10;58.60
31687;DHT22;18285;51.330;4.946;2022-08-19T18:39:59;25.00;57.90
31687;DHT22;18285;51.330;4.946;2022-08-19T19:04:30;25.00;58.10
31687;DHT22;18285;51.330;4.946;2022-08-19T19:28:45;25.00;57.90
31687;DHT22;18285;51.330;4.946;2022-08-19T19:52:57;25.20;57.60
31687;DHT22;18285;51.330;4.946;2022-08-19T20:17:09;25.20;57.60
31687;DHT22;18285;51.330;4.946;2022-08-19T21:17:42;25.20;56.60
31687;DHT22;18285;51.330;4.946;2022-08-19T21:41:53;25.40;57.00
31687;DHT22;18285;51.330;4.946;2022-08-19T22:06:04;25.20;56.90
31687;DHT22;18285;51.330;4.946;2022-08-19T22:30:16;25.20;57.30
31687;DHT22;18285;51.330;4.946;2022-08-19T22:54:27;25.20;57.40
31687;DHT22;18285;51.330;4.946;2022-08-19T23:18:38;25.20;57.80
31687;DHT22;18285;51.330;4.946;2022-08-19T23:42:49;25.20;57.60
